sensor_id;sensor_type;location;lat;lon;timestamp;P1;durP1;ratioP1;P2;durP2;ratioP2
59207;SDS011;44977;53.132;6.408;2023-05-10T00:00:56;10.73;;;9.63;;
59207;SDS011;44977;53.132;6.408;2023-05-10T00:05:57;10.57;;;9.18;;
59207;SDS011;44977;53.132;6.408;2023-05-10T00:10:58;11.27;;;9.68;;
59207;SDS011;44977;53.132;6.408;2023-05-10T00:15:58;9.80;;;8.60;;
59207;SDS011;44977;53.132;6.408;2023-05-10T00:20:59;9.38;;;8.18;;
59207;SDS011;44977;53.132;6.408;2023-05-10T00:26:00;10.57;;;8.80;;
59207;SDS011;44977;53.132;6.408;2023-05-10T00:31:01;9.40;;;8.18;;
59207;SDS011;44977;53.132;6.408;2023-05-10T00:36:01;9.23;;;7.93;;
59207;SDS011;44977;53.132;6.408;2023-05-10T00:41:02;8.98;;;7.57;;
59207;SDS011;44977;53.132;6.408;2023-05-10T00:46:04;10.23;;;8.65;;
59207;SDS011;44977;53.132;6.408;2023-05-10T00:51:05;10.10;;;9.00;;
59207;SDS011;44977;53.132;6.408;2023-05-10T00:56:06;10.85;;;9.68;;
59207;SDS011;44977;53.132;6.408;2023-05-10T01:01:07;12.18;;;9.52;;
59207;SDS011;44977;53.132;6.408;2023-05-10T01:06:09;11.30;;;9.75;;
59207;SDS011;44977;53.132;6.408;2023-05-10T01:11:11;13.68;;;12.02;;
59207;SDS011;44977;53.132;6.408;2023-05-10T01:16:12;13.20;;;11.80;;
59207;SDS011;44977;53.132;6.408;2023-05-10T01:37:20;12.73;;;10.95;;
59207;SDS011;44977;53.132;6.408;2023-05-10T01:42:25;13.70;;;11.75;;
59207;SDS011;44977;53.132;6.408;2023-05-10T01:52:42;11.88;;;10.60;;
59207;SDS011;44977;53.132;6.408;2023-05-10T01:57:44;11.98;;;10.77;;
59207;SDS011;44977;53.132;6.408;2023-05-10T02:02:48;11.77;;;10.20;;
59207;SDS011;44977;53.132;6.408;2023-05-10T02:07:51;12.82;;;10.88;;
59207;SDS011;44977;53.132;6.408;2023-05-10T02:12:52;11.30;;;9.93;;
59207;SDS011;44977;53.132;6.408;2023-05-10T02:17:55;12.85;;;10.65;;
59207;SDS011;44977;53.132;6.408;2023-05-10T02:23:00;14.70;;;11.45;;
59207;SDS011;44977;53.132;6.408;2023-05-10T02:28:03;14.25;;;12.27;;
59207;SDS011;44977;53.132;6.408;2023-05-10T02:33:06;17.38;;;13.85;;
59207;SDS011;44977;53.132;6.408;2023-05-10T02:38:08;17.30;;;14.07;;
59207;SDS011;44977;53.132;6.408;2023-05-10T02:43:12;17.15;;;14.82;;
59207;SDS011;44977;53.132;6.408;2023-05-10T02:48:14;19.90;;;16.27;;
59207;SDS011;44977;53.132;6.408;2023-05-10T02:53:18;21.65;;;17.90;;
59207;SDS011;44977;53.132;6.408;2023-05-10T02:58:22;24.57;;;18.40;;
59207;SDS011;44977;53.132;6.408;2023-05-10T03:03:23;23.10;;;18.45;;
59207;SDS011;44977;53.132;6.408;2023-05-10T03:08:23;26.50;;;20.70;;
59207;SDS011;44977;53.132;6.408;2023-05-10T03:13:28;25.75;;;19.83;;
59207;SDS011;44977;53.132;6.408;2023-05-10T03:18:48;25.52;;;19.35;;
59207;SDS011;44977;53.132;6.408;2023-05-10T03:24:06;26.90;;;20.65;;
59207;SDS011;44977;53.132;6.408;2023-05-10T03:29:09;29.65;;;20.85;;
59207;SDS011;44977;53.132;6.408;2023-05-10T03:34:11;27.40;;;20.30;;
59207;SDS011;44977;53.132;6.408;2023-05-10T03:39:13;26.23;;;20.35;;
59207;SDS011;44977;53.132;6.408;2023-05-10T03:44:14;22.35;;;17.85;;
59207;SDS011;44977;53.132;6.408;2023-05-10T03:49:14;22.45;;;17.63;;
59207;SDS011;44977;53.132;6.408;2023-05-10T03:54:15;23.27;;;18.55;;
59207;SDS011;44977;53.132;6.408;2023-05-10T03:59:15;22.80;;;18.20;;
59207;SDS011;44977;53.132;6.408;2023-05-10T04:04:16;20.08;;;16.48;;
59207;SDS011;44977;53.132;6.408;2023-05-10T04:09:18;21.10;;;16.58;;
59207;SDS011;44977;53.132;6.408;2023-05-10T04:14:19;19.67;;;16.35;;
59207;SDS011;44977;53.132;6.408;2023-05-10T04:19:19;20.35;;;16.48;;
59207;SDS011;44977;53.132;6.408;2023-05-10T04:24:20;17.65;;;14.88;;
59207;SDS011;44977;53.132;6.408;2023-05-10T04:29:21;16.63;;;13.05;;
59207;SDS011;44977;53.132;6.408;2023-05-10T04:34:21;14.68;;;12.48;;
59207;SDS011;44977;53.132;6.408;2023-05-10T04:39:22;11.40;;;8.90;;
59207;SDS011;44977;53.132;6.408;2023-05-10T04:44:22;8.20;;;5.97;;
59207;SDS011;44977;53.132;6.408;2023-05-10T04:49:23;8.57;;;5.80;;
59207;SDS011;44977;53.132;6.408;2023-05-10T04:54:24;6.90;;;4.40;;
59207;SDS011;44977;53.132;6.408;2023-05-10T04:59:25;7.55;;;4.72;;
59207;SDS011;44977;53.132;6.408;2023-05-10T05:04:26;6.65;;;4.13;;
59207;SDS011;44977;53.132;6.408;2023-05-10T05:09:27;6.75;;;4.25;;
59207;SDS011;44977;53.132;6.408;2023-05-10T05:14:27;8.50;;;4.60;;
59207;SDS011;44977;53.132;6.408;2023-05-10T05:19:28;7.90;;;4.80;;
59207;SDS011;44977;53.132;6.408;2023-05-10T05:24:34;8.20;;;6.07;;
59207;SDS011;44977;53.132;6.408;2023-05-10T05:29:36;8.50;;;6.35;;
59207;SDS011;44977;53.132;6.408;2023-05-10T05:34:37;9.48;;;7.15;;
59207;SDS011;44977;53.132;6.408;2023-05-10T05:39:37;9.38;;;7.22;;
59207;SDS011;44977;53.132;6.408;2023-05-10T05:44:38;10.85;;;8.00;;
59207;SDS011;44977;53.132;6.408;2023-05-10T05:49:39;11.98;;;8.88;;
59207;SDS011;44977;53.132;6.408;2023-05-10T05:54:40;14.75;;;10.98;;
59207;SDS011;44977;53.132;6.408;2023-05-10T05:59:41;15.80;;;11.77;;
59207;SDS011;44977;53.132;6.408;2023-05-10T06:04:43;15.50;;;11.70;;
59207;SDS011;44977;53.132;6.408;2023-05-10T06:09:44;13.13;;;9.95;;
59207;SDS011;44977;53.132;6.408;2023-05-10T06:14:45;14.80;;;11.07;;
59207;SDS011;44977;53.132;6.408;2023-05-10T06:19:45;12.30;;;9.85;;
59207;SDS011;44977;53.132;6.408;2023-05-10T06:24:46;13.00;;;10.40;;
59207;SDS011;44977;53.132;6.408;2023-05-10T06:29:47;12.50;;;9.65;;
59207;SDS011;44977;53.132;6.408;2023-05-10T06:34:47;8.93;;;6.80;;
59207;SDS011;44977;53.132;6.408;2023-05-10T06:39:48;8.40;;;5.68;;
59207;SDS011;44977;53.132;6.408;2023-05-10T06:44:49;6.30;;;3.85;;
59207;SDS011;44977;53.132;6.408;2023-05-10T06:49:49;5.47;;;2.80;;
59207;SDS011;44977;53.132;6.408;2023-05-10T06:54:50;3.88;;;2.30;;
59207;SDS011;44977;53.132;6.408;2023-05-10T06:59:51;3.50;;;2.15;;
59207;SDS011;44977;53.132;6.408;2023-05-10T07:04:52;2.10;;;1.60;;
59207;SDS011;44977;53.132;6.408;2023-05-10T07:09:53;3.75;;;2.25;;
59207;SDS011;44977;53.132;6.408;2023-05-10T07:14:53;3.35;;;2.10;;
59207;SDS011;44977;53.132;6.408;2023-05-10T07:19:54;4.25;;;2.75;;
59207;SDS011;44977;53.132;6.408;2023-05-10T07:24:55;6.60;;;4.13;;
59207;SDS011;44977;53.132;6.408;2023-05-10T07:29:55;6.40;;;4.30;;
59207;SDS011;44977;53.132;6.408;2023-05-10T07:34:56;7.50;;;5.80;;
59207;SDS011;44977;53.132;6.408;2023-05-10T07:39:57;8.05;;;5.85;;
59207;SDS011;44977;53.132;6.408;2023-05-10T07:44:57;7.78;;;6.03;;
59207;SDS011;44977;53.132;6.408;2023-05-10T07:49:58;7.68;;;6.22;;
59207;SDS011;44977;53.132;6.408;2023-05-10T07:54:59;8.00;;;6.57;;
59207;SDS011;44977;53.132;6.408;2023-05-10T08:00:00;8.52;;;6.85;;
59207;SDS011;44977;53.132;6.408;2023-05-10T08:05:00;9.23;;;7.03;;
59207;SDS011;44977;53.132;6.408;2023-05-10T08:10:02;8.95;;;6.80;;
59207;SDS011;44977;53.132;6.408;2023-05-10T08:15:03;9.70;;;6.60;;
59207;SDS011;44977;53.132;6.408;2023-05-10T08:20:04;7.38;;;5.18;;
59207;SDS011;44977;53.132;6.408;2023-05-10T08:25:05;8.00;;;5.80;;
59207;SDS011;44977;53.132;6.408;2023-05-10T08:30:06;7.78;;;5.85;;
59207;SDS011;44977;53.132;6.408;2023-05-10T08:35:08;9.70;;;6.78;;
59207;SDS011;44977;53.132;6.408;2023-05-10T08:40:08;10.30;;;6.80;;
59207;SDS011;44977;53.132;6.408;2023-05-10T08:45:11;10.40;;;6.75;;
59207;SDS011;44977;53.132;6.408;2023-05-10T08:50:13;11.05;;;6.75;;
59207;SDS011;44977;53.132;6.408;2023-05-10T08:55:17;10.88;;;7.65;;
59207;SDS011;44977;53.132;6.408;2023-05-10T09:00:18;9.90;;;7.70;;
59207;SDS011;44977;53.132;6.408;2023-05-10T09:05:20;10.20;;;7.28;;
59207;SDS011;44977;53.132;6.408;2023-05-10T09:10:21;10.20;;;6.53;;
59207;SDS011;44977;53.132;6.408;2023-05-10T09:15:23;8.98;;;6.05;;
59207;SDS011;44977;53.132;6.408;2023-05-10T09:20:23;9.38;;;6.75;;
59207;SDS011;44977;53.132;6.408;2023-05-10T09:25:24;8.93;;;6.70;;
59207;SDS011;44977;53.132;6.408;2023-05-10T09:30:26;10.50;;;7.22;;
59207;SDS011;44977;53.132;6.408;2023-05-10T09:35:29;10.73;;;7.35;;
59207;SDS011;44977;53.132;6.408;2023-05-10T09:40:30;10.15;;;7.00;;
59207;SDS011;44977;53.132;6.408;2023-05-10T09:45:32;11.18;;;7.13;;
59207;SDS011;44977;53.132;6.408;2023-05-10T09:50:33;10.65;;;6.43;;
59207;SDS011;44977;53.132;6.408;2023-05-10T09:55:41;8.90;;;6.28;;
59207;SDS011;44977;53.132;6.408;2023-05-10T10:00:46;10.00;;;6.20;;
59207;SDS011;44977;53.132;6.408;2023-05-10T10:05:51;10.45;;;6.32;;
59207;SDS011;44977;53.132;6.408;2023-05-10T10:10:53;10.02;;;6.38;;
59207;SDS011;44977;53.132;6.408;2023-05-10T10:15:54;9.15;;;6.25;;
59207;SDS011;44977;53.132;6.408;2023-05-10T10:20:54;9.35;;;6.07;;
59207;SDS011;44977;53.132;6.408;2023-05-10T10:25:56;8.55;;;5.70;;
59207;SDS011;44977;53.132;6.408;2023-05-10T10:30:59;8.77;;;5.70;;
59207;SDS011;44977;53.132;6.408;2023-05-10T10:36:12;8.38;;;5.50;;
59207;SDS011;44977;53.132;6.408;2023-05-10T10:46:46;7.97;;;4.93;;
59207;SDS011;44977;53.132;6.408;2023-05-10T10:57:14;8.60;;;5.63;;
59207;SDS011;44977;53.132;6.408;2023-05-10T11:07:53;9.45;;;6.30;;
59207;SDS011;44977;53.132;6.408;2023-05-10T11:18:24;9.25;;;6.38;;
59207;SDS011;44977;53.132;6.408;2023-05-10T11:23:31;9.80;;;6.65;;
59207;SDS011;44977;53.132;6.408;2023-05-10T11:28:47;11.23;;;7.82;;
59207;SDS011;44977;53.132;6.408;2023-05-10T11:33:52;12.63;;;7.88;;
59207;SDS011;44977;53.132;6.408;2023-05-10T11:38:56;13.27;;;8.55;;
59207;SDS011;44977;53.132;6.408;2023-05-10T11:43:57;12.70;;;8.90;;
59207;SDS011;44977;53.132;6.408;2023-05-10T11:49:01;12.88;;;9.27;;
59207;SDS011;44977;53.132;6.408;2023-05-10T11:54:07;12.20;;;8.32;;
59207;SDS011;44977;53.132;6.408;2023-05-10T11:59:09;10.00;;;6.95;;
59207;SDS011;44977;53.132;6.408;2023-05-10T12:04:10;9.73;;;7.15;;
59207;SDS011;44977;53.132;6.408;2023-05-10T12:09:11;11.27;;;7.45;;
59207;SDS011;44977;53.132;6.408;2023-05-10T12:14:12;10.05;;;7.05;;
59207;SDS011;44977;53.132;6.408;2023-05-10T12:19:12;10.27;;;7.22;;
59207;SDS011;44977;53.132;6.408;2023-05-10T12:24:19;12.05;;;7.47;;
59207;SDS011;44977;53.132;6.408;2023-05-10T12:29:21;10.43;;;6.60;;
59207;SDS011;44977;53.132;6.408;2023-05-10T12:34:33;10.27;;;6.20;;
59207;SDS011;44977;53.132;6.408;2023-05-10T12:39:42;11.02;;;7.07;;
59207;SDS011;44977;53.132;6.408;2023-05-10T12:44:44;10.65;;;6.65;;
59207;SDS011;44977;53.132;6.408;2023-05-10T12:49:45;10.32;;;7.40;;
59207;SDS011;44977;53.132;6.408;2023-05-10T12:54:46;11.05;;;7.45;;
59207;SDS011;44977;53.132;6.408;2023-05-10T12:59:46;10.85;;;6.85;;
59207;SDS011;44977;53.132;6.408;2023-05-10T13:04:47;9.32;;;6.18;;
59207;SDS011;44977;53.132;6.408;2023-05-10T13:09:48;11.52;;;7.78;;
59207;SDS011;44977;53.132;6.408;2023-05-10T13:14:49;10.38;;;6.75;;
59207;SDS011;44977;53.132;6.408;2023-05-10T13:19:50;11.55;;;7.40;;
59207;SDS011;44977;53.132;6.408;2023-05-10T13:24:50;11.57;;;7.45;;
59207;SDS011;44977;53.132;6.408;2023-05-10T13:29:51;11.00;;;7.20;;
59207;SDS011;44977;53.132;6.408;2023-05-10T13:34:51;11.18;;;6.97;;
59207;SDS011;44977;53.132;6.408;2023-05-10T13:39:52;10.25;;;7.00;;
59207;SDS011;44977;53.132;6.408;2023-05-10T13:44:53;9.20;;;6.03;;
59207;SDS011;44977;53.132;6.408;2023-05-10T13:49:54;9.23;;;6.07;;
59207;SDS011;44977;53.132;6.408;2023-05-10T13:54:55;11.25;;;5.82;;
59207;SDS011;44977;53.132;6.408;2023-05-10T13:59:56;10.15;;;6.28;;
59207;SDS011;44977;53.132;6.408;2023-05-10T14:04:57;9.73;;;6.57;;
59207;SDS011;44977;53.132;6.408;2023-05-10T14:09:58;10.05;;;6.65;;
59207;SDS011;44977;53.132;6.408;2023-05-10T14:14:58;9.25;;;6.53;;
59207;SDS011;44977;53.132;6.408;2023-05-10T14:19:59;10.65;;;6.60;;
59207;SDS011;44977;53.132;6.408;2023-05-10T14:25:00;11.27;;;6.85;;
59207;SDS011;44977;53.132;6.408;2023-05-10T14:30:01;11.65;;;6.72;;
59207;SDS011;44977;53.132;6.408;2023-05-10T14:35:02;10.82;;;7.75;;
59207;SDS011;44977;53.132;6.408;2023-05-10T14:40:03;11.43;;;7.93;;
59207;SDS011;44977;53.132;6.408;2023-05-10T14:45:04;10.77;;;8.02;;
59207;SDS011;44977;53.132;6.408;2023-05-10T14:50:05;10.40;;;8.05;;
59207;SDS011;44977;53.132;6.408;2023-05-10T14:55:07;12.25;;;8.23;;
59207;SDS011;44977;53.132;6.408;2023-05-10T15:00:08;11.27;;;8.05;;
59207;SDS011;44977;53.132;6.408;2023-05-10T15:05:09;11.35;;;7.80;;
59207;SDS011;44977;53.132;6.408;2023-05-10T15:10:10;11.82;;;7.75;;
59207;SDS011;44977;53.132;6.408;2023-05-10T15:15:11;10.70;;;7.72;;
59207;SDS011;44977;53.132;6.408;2023-05-10T15:20:12;11.45;;;7.95;;
59207;SDS011;44977;53.132;6.408;2023-05-10T15:25:12;11.10;;;8.02;;
59207;SDS011;44977;53.132;6.408;2023-05-10T15:30:14;11.25;;;8.73;;
59207;SDS011;44977;53.132;6.408;2023-05-10T15:35:15;12.43;;;8.70;;
59207;SDS011;44977;53.132;6.408;2023-05-10T15:40:16;11.35;;;8.23;;
59207;SDS011;44977;53.132;6.408;2023-05-10T15:45:17;13.30;;;8.02;;
59207;SDS011;44977;53.132;6.408;2023-05-10T15:50:18;11.05;;;7.55;;
59207;SDS011;44977;53.132;6.408;2023-05-10T15:55:19;10.73;;;7.80;;
59207;SDS011;44977;53.132;6.408;2023-05-10T16:00:20;11.27;;;7.57;;
59207;SDS011;44977;53.132;6.408;2023-05-10T16:05:21;10.55;;;6.97;;
59207;SDS011;44977;53.132;6.408;2023-05-10T16:10:21;9.52;;;6.75;;
59207;SDS011;44977;53.132;6.408;2023-05-10T16:15:22;12.38;;;8.80;;
59207;SDS011;44977;53.132;6.408;2023-05-10T16:20:23;12.68;;;10.10;;
59207;SDS011;44977;53.132;6.408;2023-05-10T16:25:24;13.00;;;10.40;;
59207;SDS011;44977;53.132;6.408;2023-05-10T16:30:25;14.18;;;11.32;;
59207;SDS011;44977;53.132;6.408;2023-05-10T16:35:28;13.27;;;10.85;;
59207;SDS011;44977;53.132;6.408;2023-05-10T16:40:29;13.95;;;11.73;;
59207;SDS011;44977;53.132;6.408;2023-05-10T16:45:30;12.57;;;10.55;;
59207;SDS011;44977;53.132;6.408;2023-05-10T16:50:31;14.23;;;11.55;;
59207;SDS011;44977;53.132;6.408;2023-05-10T16:55:32;12.85;;;10.45;;
59207;SDS011;44977;53.132;6.408;2023-05-10T17:00:33;11.82;;;10.43;;
59207;SDS011;44977;53.132;6.408;2023-05-10T17:05:33;12.35;;;9.52;;
59207;SDS011;44977;53.132;6.408;2023-05-10T17:10:35;10.63;;;9.15;;
59207;SDS011;44977;53.132;6.408;2023-05-10T17:15:38;10.80;;;8.48;;
59207;SDS011;44977;53.132;6.408;2023-05-10T17:20:42;9.57;;;7.65;;
59207;SDS011;44977;53.132;6.408;2023-05-10T17:25:44;9.32;;;7.50;;
59207;SDS011;44977;53.132;6.408;2023-05-10T17:30:44;9.27;;;7.65;;
59207;SDS011;44977;53.132;6.408;2023-05-10T17:35:45;9.93;;;7.88;;
59207;SDS011;44977;53.132;6.408;2023-05-10T17:40:46;9.05;;;7.22;;
59207;SDS011;44977;53.132;6.408;2023-05-10T17:45:47;9.18;;;7.60;;
59207;SDS011;44977;53.132;6.408;2023-05-10T17:50:49;9.57;;;7.00;;
59207;SDS011;44977;53.132;6.408;2023-05-10T17:55:50;10.43;;;7.25;;
59207;SDS011;44977;53.132;6.408;2023-05-10T18:00:51;10.85;;;8.00;;
59207;SDS011;44977;53.132;6.408;2023-05-10T18:05:52;9.68;;;7.70;;
59207;SDS011;44977;53.132;6.408;2023-05-10T18:10:54;9.52;;;7.78;;
59207;SDS011;44977;53.132;6.408;2023-05-10T18:15:55;10.05;;;7.13;;
59207;SDS011;44977;53.132;6.408;2023-05-10T18:20:55;9.20;;;6.72;;
59207;SDS011;44977;53.132;6.408;2023-05-10T18:26:00;10.52;;;7.28;;
59207;SDS011;44977;53.132;6.408;2023-05-10T18:31:01;9.77;;;8.35;;
59207;SDS011;44977;53.132;6.408;2023-05-10T18:36:02;10.88;;;8.00;;
59207;SDS011;44977;53.132;6.408;2023-05-10T18:41:04;10.00;;;6.95;;
59207;SDS011;44977;53.132;6.408;2023-05-10T18:46:05;9.43;;;7.90;;
59207;SDS011;44977;53.132;6.408;2023-05-10T18:51:06;9.55;;;7.30;;
59207;SDS011;44977;53.132;6.408;2023-05-10T18:56:07;10.02;;;7.25;;
59207;SDS011;44977;53.132;6.408;2023-05-10T19:01:07;9.05;;;6.40;;
59207;SDS011;44977;53.132;6.408;2023-05-10T19:06:08;8.63;;;6.60;;
59207;SDS011;44977;53.132;6.408;2023-05-10T19:11:09;8.63;;;6.90;;
59207;SDS011;44977;53.132;6.408;2023-05-10T19:16:10;9.70;;;7.97;;
59207;SDS011;44977;53.132;6.408;2023-05-10T19:21:12;9.73;;;7.68;;
59207;SDS011;44977;53.132;6.408;2023-05-10T19:26:13;9.85;;;7.82;;
59207;SDS011;44977;53.132;6.408;2023-05-10T19:31:14;9.43;;;7.70;;
59207;SDS011;44977;53.132;6.408;2023-05-10T19:36:14;10.27;;;7.78;;
59207;SDS011;44977;53.132;6.408;2023-05-10T19:41:15;10.88;;;8.40;;
59207;SDS011;44977;53.132;6.408;2023-05-10T19:46:16;9.90;;;7.60;;
59207;SDS011;44977;53.132;6.408;2023-05-10T19:51:16;9.77;;;8.13;;
59207;SDS011;44977;53.132;6.408;2023-05-10T19:56:17;9.85;;;7.63;;
59207;SDS011;44977;53.132;6.408;2023-05-10T20:01:18;11.15;;;7.85;;
59207;SDS011;44977;53.132;6.408;2023-05-10T20:06:19;9.73;;;7.43;;
59207;SDS011;44977;53.132;6.408;2023-05-10T20:11:19;11.45;;;8.65;;
59207;SDS011;44977;53.132;6.408;2023-05-10T20:16:20;10.55;;;7.95;;
59207;SDS011;44977;53.132;6.408;2023-05-10T20:21:21;10.77;;;8.10;;
59207;SDS011;44977;53.132;6.408;2023-05-10T20:26:22;9.75;;;7.85;;
59207;SDS011;44977;53.132;6.408;2023-05-10T20:31:23;9.82;;;7.80;;
59207;SDS011;44977;53.132;6.408;2023-05-10T20:36:24;9.63;;;7.35;;
59207;SDS011;44977;53.132;6.408;2023-05-10T20:41:25;10.38;;;8.02;;
59207;SDS011;44977;53.132;6.408;2023-05-10T20:46:26;9.80;;;7.63;;
59207;SDS011;44977;53.132;6.408;2023-05-10T20:51:27;10.13;;;7.68;;
59207;SDS011;44977;53.132;6.408;2023-05-10T20:56:29;11.50;;;8.32;;
59207;SDS011;44977;53.132;6.408;2023-05-10T21:01:30;10.90;;;8.43;;
59207;SDS011;44977;53.132;6.408;2023-05-10T21:06:31;10.73;;;8.10;;
59207;SDS011;44977;53.132;6.408;2023-05-10T21:11:32;11.82;;;8.93;;
59207;SDS011;44977;53.132;6.408;2023-05-10T21:16:34;12.50;;;9.70;;
59207;SDS011;44977;53.132;6.408;2023-05-10T21:21:35;11.13;;;8.95;;
59207;SDS011;44977;53.132;6.408;2023-05-10T21:26:36;11.35;;;8.93;;
59207;SDS011;44977;53.132;6.408;2023-05-10T21:31:37;14.27;;;10.48;;
59207;SDS011;44977;53.132;6.408;2023-05-10T21:36:37;13.85;;;10.70;;
59207;SDS011;44977;53.132;6.408;2023-05-10T21:41:38;13.15;;;10.00;;
59207;SDS011;44977;53.132;6.408;2023-05-10T21:46:39;12.30;;;9.57;;
59207;SDS011;44977;53.132;6.408;2023-05-10T21:51:40;11.88;;;9.27;;
59207;SDS011;44977;53.132;6.408;2023-05-10T21:56:41;12.50;;;10.02;;
59207;SDS011;44977;53.132;6.408;2023-05-10T22:01:41;11.90;;;8.95;;
59207;SDS011;44977;53.132;6.408;2023-05-10T22:06:42;12.30;;;9.43;;
59207;SDS011;44977;53.132;6.408;2023-05-10T22:11:44;11.95;;;9.15;;
59207;SDS011;44977;53.132;6.408;2023-05-10T22:16:44;10.60;;;8.05;;
59207;SDS011;44977;53.132;6.408;2023-05-10T22:21:45;11.38;;;8.30;;
59207;SDS011;44977;53.132;6.408;2023-05-10T22:26:46;10.15;;;8.00;;
59207;SDS011;44977;53.132;6.408;2023-05-10T22:31:46;9.88;;;7.53;;
59207;SDS011;44977;53.132;6.408;2023-05-10T22:36:47;9.70;;;7.25;;
59207;SDS011;44977;53.132;6.408;2023-05-10T22:41:49;10.20;;;7.32;;
59207;SDS011;44977;53.132;6.408;2023-05-10T22:46:50;11.23;;;7.95;;
59207;SDS011;44977;53.132;6.408;2023-05-10T22:51:51;10.82;;;8.23;;
59207;SDS011;44977;53.132;6.408;2023-05-10T22:56:51;11.63;;;8.70;;
59207;SDS011;44977;53.132;6.408;2023-05-10T23:01:53;10.60;;;7.75;;
59207;SDS011;44977;53.132;6.408;2023-05-10T23:06:53;11.60;;;8.35;;
59207;SDS011;44977;53.132;6.408;2023-05-10T23:11:54;10.35;;;8.07;;
59207;SDS011;44977;53.132;6.408;2023-05-10T23:16:55;11.35;;;8.55;;
59207;SDS011;44977;53.132;6.408;2023-05-10T23:21:55;13.77;;;9.70;;
59207;SDS011;44977;53.132;6.408;2023-05-10T23:26:56;12.32;;;9.57;;
59207;SDS011;44977;53.132;6.408;2023-05-10T23:31:57;12.95;;;9.30;;
59207;SDS011;44977;53.132;6.408;2023-05-10T23:36:57;11.68;;;8.68;;
59207;SDS011;44977;53.132;6.408;2023-05-10T23:41:58;12.35;;;8.85;;
59207;SDS011;44977;53.132;6.408;2023-05-10T23:46:59;12.70;;;9.15;;
59207;SDS011;44977;53.132;6.408;2023-05-10T23:52:00;14.18;;;10.63;;
59207;SDS011;44977;53.132;6.408;2023-05-10T23:57:00;13.57;;;9.45;;
